createdAt,value
2023-03-20T00:00:16.533Z,30.31
2023-03-20T00:02:43.762Z,30.61
2023-03-20T00:05:21.928Z,30.52
2023-03-20T00:07:53.221Z,30.54
2023-03-20T00:10:21.339Z,30.50
2023-03-20T00:12:52.903Z,30.42
2023-03-20T00:15:25.353Z,30.56
2023-03-20T00:17:55.764Z,30.63
2023-03-20T00:20:23.131Z,30.78
2023-03-20T00:22:56.030Z,30.37
2023-03-20T00:25:27.170Z,30.69
2023-03-20T00:27:56.933Z,30.17
2023-03-20T00:30:29.195Z,30.36
2023-03-20T00:32:58.796Z,30.51
2023-03-20T00:35:27.950Z,30.35
2023-03-20T00:37:58.763Z,30.56
2023-03-20T00:40:36.828Z,30.53
2023-03-20T00:43:10.501Z,30.32
2023-03-20T00:45:42.922Z,30.30
2023-03-20T00:48:15.887Z,30.42
2023-03-20T00:50:47.625Z,30.38
2023-03-20T00:53:14.884Z,30.58
2023-03-20T00:55:42.204Z,30.74
2023-03-20T00:58:10.570Z,30.29
2023-03-20T01:00:46.827Z,30.43
2023-03-20T01:03:20.657Z,30.37
2023-03-20T01:05:50.101Z,30.01
2023-03-20T01:08:24.245Z,30.14
2023-03-20T01:10:55.048Z,30.36
2023-03-20T01:13:30.999Z,30.18
2023-03-20T01:16:02.402Z,30.31
2023-03-20T01:18:32.159Z,30.15
2023-03-20T01:21:01.891Z,30.19
2023-03-20T01:23:29.843Z,30.46
2023-03-20T01:25:57.364Z,30.84
2023-03-20T01:28:27.896Z,30.09
2023-03-20T01:30:55.283Z,30.01
2023-03-20T01:33:26.485Z,30.52
2023-03-20T01:35:59.470Z,30.04
2023-03-20T01:38:27.778Z,30.29
2023-03-20T01:41:16.935Z,30.09
2023-03-20T01:43:47.978Z,30.48
2023-03-20T01:46:18.765Z,30.21
2023-03-20T01:48:51.344Z,30.65
2023-03-20T01:51:24.369Z,30.29
2023-03-20T01:54:01.795Z,30.28
2023-03-20T01:56:35.223Z,30.76
2023-03-20T01:59:23.264Z,30.55
2023-03-20T02:01:55.840Z,30.53
2023-03-20T02:04:26.413Z,30.44
2023-03-20T02:06:59.935Z,30.17
2023-03-20T02:09:57.560Z,30.45
2023-03-20T02:12:36.652Z,30.52
2023-03-20T02:15:06.720Z,30.42
2023-03-20T02:17:52.728Z,30.31
2023-03-20T02:20:29.656Z,30.18
2023-03-20T02:22:59.742Z,30.16
2023-03-20T02:26:03.048Z,29.88
2023-03-20T02:29:12.223Z,30.09
2023-03-20T02:32:05.229Z,30.17
2023-03-20T02:35:09.551Z,29.99
2023-03-20T02:38:04.705Z,29.76
2023-03-20T02:40:50.976Z,30.01
2023-03-20T02:43:43.373Z,29.94
2023-03-20T02:46:29.416Z,29.83
2023-03-20T02:49:04.897Z,30.20
2023-03-20T02:51:49.139Z,30.04
2023-03-20T02:54:40.532Z,29.65
2023-03-20T02:57:17.830Z,30.20
2023-03-20T02:59:58.127Z,30.01
2023-03-20T03:02:43.272Z,30.03
2023-03-20T03:05:19.552Z,30.49
2023-03-20T03:07:53.439Z,30.04
2023-03-20T03:10:28.955Z,29.81
2023-03-20T03:13:00.719Z,29.85
2023-03-20T03:15:41.326Z,30.07
2023-03-20T03:18:16.520Z,29.86
2023-03-20T03:20:50.827Z,29.90
2023-03-20T03:23:44.604Z,29.94
2023-03-20T03:26:18.825Z,30.23
2023-03-20T03:28:58.779Z,30.23
2023-03-20T03:31:32.951Z,30.31
2023-03-20T03:34:04.570Z,30.12
2023-03-20T03:36:49.948Z,30.06
2023-03-20T03:39:47.125Z,30.23
2023-03-20T03:42:38.836Z,30.32
2023-03-20T03:45:17.264Z,30.39
2023-03-20T03:47:55.895Z,30.37
2023-03-20T03:50:31.675Z,30.27
2023-03-20T03:53:08.078Z,30.11
2023-03-20T03:55:43.341Z,30.19
2023-03-20T03:58:19.114Z,30.11
2023-03-20T04:00:52.468Z,30.13
2023-03-20T04:03:28.325Z,30.20
2023-03-20T04:05:58.875Z,30.30
2023-03-20T04:08:31.989Z,30.26
2023-03-20T04:11:00.333Z,30.06
2023-03-20T04:13:29.852Z,30.28
2023-03-20T04:16:05.880Z,30.16
2023-03-20T04:18:39.090Z,30.03
2023-03-20T04:21:10.146Z,30.29
2023-03-20T04:23:37.827Z,29.93
2023-03-20T04:26:11.305Z,30.10
2023-03-20T04:28:41.768Z,29.99
2023-03-20T04:31:18.111Z,31.05
2023-03-20T04:34:08.029Z,30.50
2023-03-20T04:36:44.124Z,31.21
2023-03-20T04:39:27.692Z,32.59
2023-03-20T04:41:59.961Z,34.12
2023-03-20T04:44:31.513Z,35.09
2023-03-20T04:47:07.221Z,35.87
2023-03-20T04:49:42.139Z,35.83
2023-03-20T04:52:14.486Z,35.87
2023-03-20T04:54:48.482Z,35.67
2023-03-20T04:57:24.104Z,35.31
2023-03-20T04:59:57.430Z,35.13
2023-03-20T05:02:27.241Z,35.07
2023-03-20T05:04:54.527Z,34.94
2023-03-20T05:07:24.107Z,34.90
2023-03-20T05:10:11.546Z,34.75
2023-03-20T05:13:06.172Z,34.86
2023-03-20T05:15:55.221Z,34.67
2023-03-20T05:18:57.088Z,34.55
2023-03-20T05:21:56.264Z,34.61
2023-03-20T05:24:52.166Z,33.89
2023-03-20T05:27:32.568Z,33.88
2023-03-20T05:30:20.748Z,33.98
2023-03-20T05:33:11.339Z,34.15
2023-03-20T05:36:02.698Z,34.09
2023-03-20T05:38:49.188Z,33.61
2023-03-20T05:41:47.938Z,33.74
2023-03-20T05:44:47.377Z,33.57
2023-03-20T05:47:36.170Z,33.41
2023-03-20T05:50:40.907Z,33.77
2023-03-20T05:53:22.271Z,33.29
2023-03-20T05:56:12.633Z,33.11
2023-03-20T05:58:43.241Z,33.01
2023-03-20T06:01:32.045Z,33.16
2023-03-20T06:04:28.405Z,32.95
2023-03-20T06:07:16.857Z,32.92
2023-03-20T06:09:52.230Z,32.73
2023-03-20T06:12:26.961Z,32.67
2023-03-20T06:14:57.771Z,33.03
2023-03-20T06:17:30.489Z,32.57
2023-03-20T06:20:07.630Z,32.38
2023-03-20T06:22:40.166Z,32.35
2023-03-20T06:25:10.359Z,32.95
2023-03-20T06:27:49.347Z,32.68
2023-03-20T06:30:22.054Z,32.82
2023-03-20T06:33:01.595Z,32.40
2023-03-20T06:35:47.469Z,32.36
2023-03-20T06:38:23.635Z,32.19
2023-03-20T06:40:56.785Z,32.34
2023-03-20T06:43:29.598Z,32.76
2023-03-20T06:46:05.441Z,32.63
2023-03-20T06:48:44.274Z,32.57
2023-03-20T06:51:21.173Z,32.56
2023-03-20T06:53:58.544Z,32.28
2023-03-20T06:56:32.969Z,32.32
2023-03-20T06:59:07.762Z,32.21
2023-03-20T07:01:35.321Z,32.13
2023-03-20T07:04:08.213Z,32.12
2023-03-20T07:06:51.553Z,32.02
2023-03-20T07:09:30.404Z,31.92
2023-03-20T07:12:00.502Z,32.10
2023-03-20T07:14:35.175Z,32.28
2023-03-20T07:17:09.108Z,32.42
2023-03-20T07:19:42.653Z,33.01
2023-03-20T07:22:22.115Z,32.27
2023-03-20T07:25:01.563Z,31.99
2023-03-20T07:27:34.475Z,31.99
2023-03-20T07:30:07.281Z,32.55
2023-03-20T07:32:43.566Z,32.49
2023-03-20T07:35:20.435Z,32.12
2023-03-20T07:37:59.464Z,32.19
2023-03-20T07:40:40.405Z,32.08
2023-03-20T07:43:20.399Z,32.26
2023-03-20T07:46:17.449Z,32.03
2023-03-20T07:48:58.250Z,32.08
2023-03-20T07:51:32.286Z,32.32
2023-03-20T07:54:08.616Z,32.08
2023-03-20T07:56:45.585Z,32.31
2023-03-20T07:59:21.631Z,32.26
2023-03-20T08:01:59.863Z,32.11
2023-03-20T08:04:34.018Z,31.91
2023-03-20T08:07:07.511Z,32.17
2023-03-20T08:09:38.689Z,32.19
2023-03-20T08:12:15.010Z,31.56
2023-03-20T08:14:48.456Z,31.59
2023-03-20T08:17:22.210Z,31.15
2023-03-20T08:20:03.887Z,31.47
2023-03-20T08:22:37.122Z,31.74
2023-03-20T08:25:12.313Z,31.22
2023-03-20T08:27:42.713Z,30.98
2023-03-20T08:30:16.367Z,30.95
2023-03-20T08:32:47.587Z,31.03
2023-03-20T08:35:32.592Z,30.82
2023-03-20T08:38:01.901Z,30.89
2023-03-20T08:40:31.963Z,31.35
2023-03-20T08:43:08.321Z,31.34
2023-03-20T08:45:39.943Z,31.20
2023-03-20T08:48:13.460Z,31.76
2023-03-20T08:50:49.161Z,31.80
2023-03-20T08:53:17.222Z,31.98
2023-03-20T08:55:57.590Z,31.66
2023-03-20T08:58:25.452Z,31.87
2023-03-20T09:01:08.556Z,31.95
2023-03-20T09:03:43.461Z,32.09
2023-03-20T09:06:12.042Z,32.21
2023-03-20T09:08:48.230Z,31.82
2023-03-20T09:11:27.579Z,32.18
2023-03-20T09:14:03.181Z,32.12
2023-03-20T09:16:41.615Z,32.23
2023-03-20T09:19:19.338Z,32.15
2023-03-20T09:21:58.536Z,32.54
2023-03-20T09:24:37.835Z,32.30
2023-03-20T09:27:14.816Z,32.01
2023-03-20T09:29:51.927Z,32.11
2023-03-20T09:32:28.669Z,32.58
2023-03-20T09:35:02.825Z,32.37
2023-03-20T09:37:36.598Z,32.43
2023-03-20T09:40:05.856Z,32.42
2023-03-20T09:42:56.499Z,32.62
2023-03-20T09:45:51.966Z,32.05
2023-03-20T09:48:31.671Z,32.27
2023-03-20T09:51:16.178Z,32.28
2023-03-20T09:54:05.273Z,32.16
2023-03-20T09:56:46.953Z,32.51
2023-03-20T09:59:27.102Z,32.21
2023-03-20T10:02:03.804Z,32.25
2023-03-20T10:04:42.643Z,31.99
2023-03-20T10:07:21.934Z,32.02
2023-03-20T10:09:49.771Z,32.18
2023-03-20T10:12:39.912Z,31.97
2023-03-20T10:15:25.167Z,31.73
2023-03-20T10:18:27.661Z,32.35
2023-03-20T10:21:13.798Z,32.05
2023-03-20T10:24:00.637Z,32.43
2023-03-20T10:26:37.813Z,32.07
2023-03-20T10:29:23.569Z,31.99
2023-03-20T10:32:30.096Z,31.82
2023-03-20T10:35:29.665Z,31.74
2023-03-20T10:38:24.122Z,31.56
2023-03-20T10:40:59.832Z,31.63
2023-03-20T10:43:38.148Z,31.07
2023-03-20T10:46:18.512Z,31.23
2023-03-20T10:49:02.158Z,31.05
2023-03-20T10:51:52.592Z,31.04
2023-03-20T10:54:48.315Z,31.00
2023-03-20T10:57:24.903Z,30.85
2023-03-20T10:59:56.910Z,30.65
2023-03-20T11:02:32.505Z,30.79
2023-03-20T11:05:30.704Z,31.21
2023-03-20T11:08:13.037Z,31.48
2023-03-20T11:10:59.574Z,31.53
2023-03-20T11:13:38.611Z,31.28
2023-03-20T11:16:37.162Z,31.50
2023-03-20T11:19:14.553Z,31.32
2023-03-20T11:21:56.310Z,31.58
2023-03-20T11:24:36.020Z,31.24
2023-03-20T11:27:25.229Z,31.43
2023-03-20T11:29:58.509Z,31.09
2023-03-20T11:32:53.755Z,31.07
2023-03-20T11:35:26.055Z,30.73
2023-03-20T11:37:58.857Z,30.89
2023-03-20T11:40:34.532Z,30.60
2023-03-20T11:43:04.130Z,30.86
2023-03-20T11:45:42.166Z,30.25
2023-03-20T11:48:24.860Z,30.80
2023-03-20T11:51:10.249Z,30.58
2023-03-20T11:53:55.615Z,30.96
2023-03-20T11:56:33.036Z,30.73
2023-03-20T11:59:03.844Z,30.98
2023-03-20T12:01:48.881Z,30.45
2023-03-20T12:04:37.794Z,31.21
2023-03-20T12:07:18.245Z,31.09
2023-03-20T12:09:48.729Z,31.09
2023-03-20T12:12:47.748Z,30.77
2023-03-20T12:15:37.046Z,30.89
2023-03-20T12:18:41.984Z,30.59
2023-03-20T12:21:18.059Z,31.08
2023-03-20T12:24:05.843Z,30.94
2023-03-20T12:27:02.861Z,30.69
2023-03-20T12:29:40.820Z,30.88
2023-03-20T12:32:22.998Z,31.06
2023-03-20T12:34:59.619Z,31.22
2023-03-20T12:37:34.820Z,30.79
2023-03-20T12:40:04.922Z,30.73
2023-03-20T12:42:51.597Z,31.11
2023-03-20T12:46:14.987Z,30.89
2023-03-20T12:49:03.392Z,30.88
2023-03-20T12:51:44.364Z,31.33
2023-03-20T12:54:45.903Z,31.62
2023-03-20T12:57:39.238Z,30.60
2023-03-20T13:00:18.269Z,30.58
2023-03-20T13:02:52.222Z,30.52
2023-03-20T13:05:46.617Z,30.34
2023-03-20T13:08:22.646Z,29.91
2023-03-20T13:10:59.863Z,30.04
2023-03-20T13:13:51.445Z,30.51
2023-03-20T13:16:48.372Z,30.92
2023-03-20T13:19:48.999Z,30.58
2023-03-20T13:22:27.933Z,31.13
2023-03-20T13:25:08.759Z,30.36
2023-03-20T13:27:42.924Z,30.56
2023-03-20T13:30:34.652Z,30.53
2023-03-20T13:33:26.258Z,30.22
2023-03-20T13:36:10.035Z,30.91
2023-03-20T13:38:46.157Z,30.36
2023-03-20T13:41:22.149Z,30.65
2023-03-20T13:44:06.361Z,30.76
2023-03-20T13:46:45.700Z,30.18
2023-03-20T13:49:35.282Z,30.31
2023-03-20T13:52:22.034Z,30.23
2023-03-20T13:55:11.614Z,30.39
2023-03-20T13:57:44.751Z,30.62
2023-03-20T14:00:29.176Z,30.07
2023-03-20T14:03:17.339Z,29.57
2023-03-20T14:05:46.411Z,29.50
2023-03-20T14:08:36.884Z,30.22
2023-03-20T14:11:15.084Z,30.21
2023-03-20T14:14:04.852Z,29.87
2023-03-20T14:16:36.070Z,30.26
2023-03-20T14:19:18.093Z,30.30
2023-03-20T14:21:47.769Z,30.28
2023-03-20T14:24:26.046Z,29.89
2023-03-20T14:26:58.046Z,30.04
2023-03-20T14:29:29.296Z,30.75
2023-03-20T14:32:17.969Z,30.13
2023-03-20T14:34:52.402Z,30.15
2023-03-20T14:38:09.451Z,30.55
2023-03-20T14:40:52.207Z,30.05
2023-03-20T14:43:52.376Z,29.93
2023-03-20T14:46:41.416Z,30.50
2023-03-20T14:49:51.989Z,30.90
2023-03-20T14:52:43.528Z,31.01
2023-03-20T14:55:20.520Z,31.22
2023-03-20T14:57:56.907Z,31.03
2023-03-20T15:00:46.224Z,30.89
2023-03-20T15:03:28.513Z,31.27
2023-03-20T15:06:08.337Z,31.09
2023-03-20T15:08:48.034Z,30.73
2023-03-20T15:11:17.508Z,30.82
2023-03-20T15:13:52.492Z,30.64
2023-03-20T15:16:33.042Z,30.70
2023-03-20T15:19:15.586Z,30.91
2023-03-20T15:21:48.548Z,30.69
2023-03-20T15:24:30.323Z,30.51
2023-03-20T15:27:04.473Z,31.05
2023-03-20T15:29:33.331Z,31.06
2023-03-20T15:32:14.348Z,30.99
2023-03-20T15:34:50.792Z,31.33
2023-03-20T15:37:24.080Z,31.16
2023-03-20T15:39:59.833Z,31.29
2023-03-20T15:42:32.156Z,31.85
2023-03-20T15:45:19.969Z,31.68
2023-03-20T15:47:51.858Z,31.21
2023-03-20T15:50:27.194Z,31.01
2023-03-20T15:53:03.231Z,31.09
2023-03-20T15:55:41.126Z,30.90
2023-03-20T15:58:20.457Z,30.77
2023-03-20T16:01:00.106Z,30.95
2023-03-20T16:03:31.097Z,31.10
2023-03-20T16:06:09.343Z,31.06
2023-03-20T16:08:39.922Z,30.94
2023-03-20T16:11:22.043Z,31.43
2023-03-20T16:13:55.920Z,31.41
2023-03-20T16:16:37.855Z,31.38
2023-03-20T16:19:13.190Z,31.14
2023-03-20T16:22:14.824Z,30.85
2023-03-20T16:24:53.263Z,30.99
2023-03-20T16:27:47.197Z,31.06
2023-03-20T16:30:17.376Z,31.60
2023-03-20T16:33:17.665Z,31.58
2023-03-20T16:35:49.915Z,31.72
2023-03-20T16:38:29.419Z,32.10
2023-03-20T16:41:29.357Z,31.66
2023-03-20T16:44:00.389Z,32.24
2023-03-20T16:46:31.387Z,31.86
2023-03-20T16:49:34.836Z,32.23
2023-03-20T16:52:11.805Z,32.19
2023-03-20T16:54:41.948Z,32.19
2023-03-20T16:57:17.374Z,32.47
2023-03-20T16:59:48.209Z,32.39
2023-03-20T17:02:27.696Z,32.50
2023-03-20T17:05:02.313Z,32.29
2023-03-20T17:07:31.659Z,32.53
2023-03-20T17:10:17.750Z,32.82
2023-03-20T17:12:55.027Z,32.97
2023-03-20T17:15:31.308Z,33.09
2023-03-20T17:18:04.577Z,32.81
2023-03-20T17:20:40.311Z,32.63
2023-03-20T17:23:19.838Z,33.13
2023-03-20T17:25:52.883Z,32.77
2023-03-20T17:28:34.265Z,32.60
2023-03-20T17:31:10.433Z,32.77
2023-03-20T17:33:46.509Z,33.07
2023-03-20T17:36:20.631Z,33.03
2023-03-20T17:38:53.691Z,33.01
2023-03-20T17:41:25.864Z,32.84
2023-03-20T17:43:54.085Z,32.76
2023-03-20T17:46:28.016Z,33.12
2023-03-20T17:49:06.049Z,32.85
2023-03-20T17:51:41.476Z,32.65
2023-03-20T17:54:17.909Z,32.77
2023-03-20T17:56:51.410Z,32.95
2023-03-20T17:59:21.424Z,32.85
2023-03-20T18:01:53.296Z,33.15
2023-03-20T18:04:29.715Z,33.24
2023-03-20T18:07:04.614Z,33.24
2023-03-20T18:09:35.083Z,33.12
2023-03-20T18:12:22.392Z,33.10
2023-03-20T18:14:53.529Z,33.02
2023-03-20T18:17:22.518Z,33.06
2023-03-20T18:19:54.298Z,33.18
2023-03-20T18:22:26.612Z,33.09
2023-03-20T18:24:54.173Z,33.19
2023-03-20T18:27:21.810Z,33.20
2023-03-20T18:29:54.696Z,33.37
2023-03-20T18:32:22.258Z,33.45
2023-03-20T18:34:52.631Z,33.39
2023-03-20T18:37:22.124Z,33.23
2023-03-20T18:39:53.020Z,33.15
2023-03-20T18:42:23.617Z,33.14
2023-03-20T18:44:53.937Z,33.27
2023-03-20T18:47:22.564Z,33.16
2023-03-20T18:49:58.039Z,33.27
2023-03-20T18:52:26.265Z,33.29
2023-03-20T18:54:59.090Z,33.42
2023-03-20T18:57:29.674Z,33.57
2023-03-20T19:00:06.097Z,33.52
2023-03-20T19:02:33.793Z,33.21
2023-03-20T19:05:07.289Z,33.57
2023-03-20T19:07:34.771Z,33.50
2023-03-20T19:10:05.265Z,33.45
2023-03-20T19:12:41.566Z,33.64
2023-03-20T19:15:10.707Z,33.56
2023-03-20T19:17:41.272Z,33.40
2023-03-20T19:20:26.610Z,33.42
2023-03-20T19:22:55.666Z,33.56
2023-03-20T19:25:29.141Z,33.67
2023-03-20T19:27:56.811Z,33.77
2023-03-20T19:30:34.740Z,33.31
2023-03-20T19:33:03.556Z,33.56
2023-03-20T19:35:58.798Z,33.38
2023-03-20T19:38:26.193Z,33.62
2023-03-20T19:40:57.870Z,33.42
2023-03-20T19:43:32.416Z,33.51
2023-03-20T19:46:00.194Z,33.61
2023-03-20T19:48:50.401Z,33.30
2023-03-20T19:51:20.632Z,33.35
2023-03-20T19:53:50.168Z,33.12
2023-03-20T19:56:22.256Z,33.39
2023-03-20T19:58:54.835Z,33.53
2023-03-20T20:01:27.050Z,33.44
2023-03-20T20:03:55.279Z,33.46
2023-03-20T20:06:32.079Z,33.75
2023-03-20T20:09:01.336Z,33.61
2023-03-20T20:11:32.210Z,33.75
2023-03-20T20:14:09.446Z,33.42
2023-03-20T20:16:43.126Z,33.68
2023-03-20T20:19:15.014Z,33.61
2023-03-20T20:24:45.377Z,33.55
2023-03-20T20:27:19.094Z,33.30
2023-03-20T20:29:51.598Z,33.24
2023-03-20T20:32:21.903Z,33.59
2023-03-20T20:38:30.646Z,33.61
2023-03-20T20:40:32.443Z,33.66
2023-03-20T20:43:02.427Z,33.72
2023-03-20T20:45:35.028Z,33.40
2023-03-20T20:48:07.524Z,33.67
2023-03-20T20:50:39.207Z,33.48
2023-03-20T20:53:09.870Z,33.70
2023-03-20T20:55:38.070Z,33.49
2023-03-20T20:58:07.091Z,33.62
2023-03-20T21:00:51.663Z,33.71
2023-03-20T21:03:24.464Z,33.81
2023-03-20T21:05:54.091Z,33.54
2023-03-20T21:08:22.517Z,33.81
2023-03-20T21:10:53.269Z,33.62
2023-03-20T21:13:27.322Z,33.60
2023-03-20T21:16:00.082Z,33.66
2023-03-20T21:18:31.421Z,33.36
2023-03-20T21:21:13.184Z,33.49
2023-03-20T21:23:41.823Z,33.66
2023-03-20T21:26:13.663Z,33.47
2023-03-20T21:28:44.082Z,33.54
2023-03-20T21:31:26.555Z,33.49
2023-03-20T21:33:55.690Z,33.59
2023-03-20T21:36:25.133Z,33.89
2023-03-20T21:39:08.122Z,33.48
2023-03-20T21:41:37.893Z,33.71
2023-03-20T21:44:06.362Z,33.42
2023-03-20T21:50:23.275Z,33.73
2023-03-20T21:56:09.109Z,33.95
2023-03-20T22:04:45.049Z,33.36
2023-03-20T22:07:24.197Z,33.55
2023-03-20T22:16:03.516Z,33.40
2023-03-20T22:18:50.837Z,33.43
2023-03-20T22:24:36.688Z,33.48
2023-03-20T22:27:27.014Z,33.37
2023-03-20T22:30:31.028Z,33.23
2023-03-20T22:32:56.522Z,33.59
2023-03-20T22:38:59.019Z,33.58
2023-03-20T22:44:41.638Z,33.51
2023-03-20T22:46:47.124Z,33.63
2023-03-20T22:49:15.406Z,33.67
2023-03-20T22:52:07.753Z,33.61
2023-03-20T22:54:41.117Z,33.30
2023-03-20T22:57:09.662Z,33.41
2023-03-20T22:59:40.108Z,33.59
2023-03-20T23:02:09.126Z,33.46
2023-03-20T23:04:42.247Z,33.36
2023-03-20T23:07:12.697Z,33.64
2023-03-20T23:09:40.154Z,33.54
2023-03-20T23:12:11.673Z,33.48
2023-03-20T23:14:45.818Z,33.37
2023-03-20T23:17:21.287Z,33.30
2023-03-20T23:19:56.303Z,33.40
2023-03-20T23:22:35.599Z,33.50
2023-03-20T23:25:20.716Z,33.31
2023-03-20T23:27:53.624Z,33.33
2023-03-20T23:30:30.909Z,33.37
2023-03-20T23:33:10.877Z,33.40
2023-03-20T23:35:41.138Z,33.40
2023-03-20T23:38:08.475Z,33.50
2023-03-20T23:40:42.128Z,33.67
2023-03-20T23:43:11.818Z,33.34
2023-03-20T23:45:42.085Z,33.67
2023-03-20T23:48:15.830Z,33.26
2023-03-20T23:50:53.302Z,33.19
2023-03-20T23:53:24.699Z,33.21
2023-03-20T23:55:55.649Z,33.47
2023-03-20T23:58:25.893Z,33.53
